sensor_id;sensor_type;location;lat;lon;timestamp;pressure;altitude;pressure_sealevel;temperature;humidity
71361;BME280;59166;48.908;1.870;2023-04-25T00:04:22;99918.59;;;7.02;100.00
71361;BME280;59166;48.908;1.870;2023-04-25T00:09:23;99923.22;;;6.90;100.00
71361;BME280;59166;48.908;1.870;2023-04-25T00:14:24;99909.47;;;6.86;100.00
71361;BME280;59166;48.908;1.870;2023-04-25T00:19:26;99917.47;;;6.81;100.00
71361;BME280;59166;48.908;1.870;2023-04-25T00:24:27;99909.91;;;6.78;100.00
71361;BME280;59166;48.908;1.870;2023-04-25T00:29:28;99914.47;;;6.78;100.00
71361;BME280;59166;48.908;1.870;2023-04-25T00:34:30;99908.28;;;6.77;100.00
71361;BME280;59166;48.908;1.870;2023-04-25T00:39:31;99916.81;;;6.74;100.00
71361;BME280;59166;48.908;1.870;2023-04-25T00:44:32;99912.00;;;6.76;100.00
71361;BME280;59166;48.908;1.870;2023-04-25T00:49:35;99914.69;;;6.76;100.00
71361;BME280;59166;48.908;1.870;2023-04-25T00:54:36;99916.81;;;6.74;100.00
71361;BME280;59166;48.908;1.870;2023-04-25T00:59:38;99920.00;;;6.71;100.00
71361;BME280;59166;48.908;1.870;2023-04-25T01:04:40;99927.41;;;6.64;100.00
71361;BME280;59166;48.908;1.870;2023-04-25T01:09:41;99924.06;;;6.57;100.00
71361;BME280;59166;48.908;1.870;2023-04-25T01:14:42;99914.38;;;6.56;100.00
71361;BME280;59166;48.908;1.870;2023-04-25T01:19:44;99908.84;;;6.62;100.00
71361;BME280;59166;48.908;1.870;2023-04-25T01:24:47;99908.94;;;6.67;100.00
71361;BME280;59166;48.908;1.870;2023-04-25T01:29:47;99912.75;;;6.71;100.00
71361;BME280;59166;48.908;1.870;2023-04-25T01:34:49;99915.13;;;6.68;100.00
71361;BME280;59166;48.908;1.870;2023-04-25T01:39:51;99911.03;;;6.65;100.00
71361;BME280;59166;48.908;1.870;2023-04-25T01:44:52;99923.72;;;6.70;100.00
71361;BME280;59166;48.908;1.870;2023-04-25T01:49:53;99916.88;;;6.79;100.00
71361;BME280;59166;48.908;1.870;2023-04-25T01:54:57;99916.97;;;6.84;100.00
71361;BME280;59166;48.908;1.870;2023-04-25T02:00:00;99919.06;;;6.82;100.00
71361;BME280;59166;48.908;1.870;2023-04-25T02:05:01;99918.53;;;6.80;100.00
71361;BME280;59166;48.908;1.870;2023-04-25T02:10:05;99914.13;;;6.74;100.00
71361;BME280;59166;48.908;1.870;2023-04-25T02:15:06;99917.72;;;6.63;100.00
71361;BME280;59166;48.908;1.870;2023-04-25T02:20:08;99924.63;;;6.59;100.00
71361;BME280;59166;48.908;1.870;2023-04-25T02:25:11;99922.41;;;6.56;100.00
71361;BME280;59166;48.908;1.870;2023-04-25T02:30:12;99925.44;;;6.59;100.00
71361;BME280;59166;48.908;1.870;2023-04-25T02:35:13;99924.22;;;6.67;100.00
71361;BME280;59166;48.908;1.870;2023-04-25T02:40:16;99919.19;;;6.70;100.00
71361;BME280;59166;48.908;1.870;2023-04-25T02:45:17;99929.50;;;6.78;100.00
71361;BME280;59166;48.908;1.870;2023-04-25T02:50:18;99922.03;;;6.81;100.00
71361;BME280;59166;48.908;1.870;2023-04-25T02:55:20;99919.06;;;6.82;100.00
71361;BME280;59166;48.908;1.870;2023-04-25T03:00:21;99926.72;;;6.90;100.00
71361;BME280;59166;48.908;1.870;2023-04-25T03:05:22;99929.34;;;6.85;100.00
71361;BME280;59166;48.908;1.870;2023-04-25T03:10:24;99934.13;;;6.83;100.00
71361;BME280;59166;48.908;1.870;2023-04-25T03:15:25;99933.25;;;6.78;100.00
71361;BME280;59166;48.908;1.870;2023-04-25T03:20:26;99927.63;;;6.79;100.00
71361;BME280;59166;48.908;1.870;2023-04-25T03:25:28;99928.44;;;6.80;100.00
71361;BME280;59166;48.908;1.870;2023-04-25T03:30:29;99935.13;;;6.77;100.00
71361;BME280;59166;48.908;1.870;2023-04-25T03:35:30;99937.53;;;6.78;100.00
71361;BME280;59166;48.908;1.870;2023-04-25T03:40:32;99940.31;;;6.84;100.00
71361;BME280;59166;48.908;1.870;2023-04-25T03:45:33;99935.28;;;6.87;100.00
71361;BME280;59166;48.908;1.870;2023-04-25T03:50:34;99940.88;;;6.86;100.00
71361;BME280;59166;48.908;1.870;2023-04-25T03:55:36;99947.31;;;6.85;100.00
71361;BME280;59166;48.908;1.870;2023-04-25T04:00:37;99950.25;;;6.83;100.00
71361;BME280;59166;48.908;1.870;2023-04-25T04:05:38;99944.47;;;6.91;100.00
71361;BME280;59166;48.908;1.870;2023-04-25T04:10:40;99949.84;;;6.91;100.00
71361;BME280;59166;48.908;1.870;2023-04-25T04:15:41;99952.22;;;6.88;100.00
71361;BME280;59166;48.908;1.870;2023-04-25T04:20:41;99956.91;;;6.81;100.00
71361;BME280;59166;48.908;1.870;2023-04-25T04:25:44;99965.19;;;6.79;100.00
71361;BME280;59166;48.908;1.870;2023-04-25T04:30:45;99967.34;;;6.77;100.00
71361;BME280;59166;48.908;1.870;2023-04-25T04:35:46;99966.84;;;6.80;100.00
71361;BME280;59166;48.908;1.870;2023-04-25T04:40:48;99979.53;;;6.85;100.00
71361;BME280;59166;48.908;1.870;2023-04-25T04:45:49;99987.34;;;6.86;100.00
71361;BME280;59166;48.908;1.870;2023-04-25T04:50:50;99983.59;;;6.87;100.00
71361;BME280;59166;48.908;1.870;2023-04-25T04:55:52;99997.03;;;6.87;100.00
71361;BME280;59166;48.908;1.870;2023-04-25T05:00:53;100000.38;;;6.94;100.00
71361;BME280;59166;48.908;1.870;2023-04-25T05:05:54;100004.69;;;6.95;100.00
71361;BME280;59166;48.908;1.870;2023-04-25T05:10:56;100019.97;;;6.95;100.00
71361;BME280;59166;48.908;1.870;2023-04-25T05:15:57;100026.47;;;6.99;100.00
71361;BME280;59166;48.908;1.870;2023-04-25T05:20:59;100041.16;;;7.08;100.00
71361;BME280;59166;48.908;1.870;2023-04-25T05:26:02;100047.25;;;7.03;100.00
71361;BME280;59166;48.908;1.870;2023-04-25T05:31:03;100064.50;;;7.07;100.00
71361;BME280;59166;48.908;1.870;2023-04-25T05:36:06;100068.56;;;7.10;100.00
71361;BME280;59166;48.908;1.870;2023-04-25T05:41:09;100081.84;;;7.16;100.00
71361;BME280;59166;48.908;1.870;2023-04-25T05:46:10;100098.06;;;7.21;100.00
71361;BME280;59166;48.908;1.870;2023-04-25T05:51:12;100103.16;;;7.23;100.00
71361;BME280;59166;48.908;1.870;2023-04-25T05:56:14;100104.91;;;7.29;100.00
71361;BME280;59166;48.908;1.870;2023-04-25T06:01:15;100115.94;;;7.33;100.00
71361;BME280;59166;48.908;1.870;2023-04-25T06:06:16;100123.63;;;7.41;100.00
71361;BME280;59166;48.908;1.870;2023-04-25T06:11:18;100124.75;;;7.45;100.00
71361;BME280;59166;48.908;1.870;2023-04-25T06:16:19;100119.00;;;7.53;100.00
71361;BME280;59166;48.908;1.870;2023-04-25T06:21:20;100123.63;;;7.57;100.00
71361;BME280;59166;48.908;1.870;2023-04-25T06:26:22;100108.84;;;7.60;100.00
71361;BME280;59166;48.908;1.870;2023-04-25T06:31:23;100123.09;;;7.77;100.00
71361;BME280;59166;48.908;1.870;2023-04-25T06:36:24;100129.94;;;7.85;100.00
71361;BME280;59166;48.908;1.870;2023-04-25T06:41:27;100137.34;;;7.94;100.00
71361;BME280;59166;48.908;1.870;2023-04-25T06:46:28;100151.38;;;7.96;100.00
71361;BME280;59166;48.908;1.870;2023-04-25T06:51:28;100162.53;;;7.88;100.00
71361;BME280;59166;48.908;1.870;2023-04-25T06:56:31;100157.34;;;7.82;100.00
71361;BME280;59166;48.908;1.870;2023-04-25T07:01:32;100165.81;;;7.73;100.00
71361;BME280;59166;48.908;1.870;2023-04-25T07:06:32;100169.41;;;7.79;100.00
71361;BME280;59166;48.908;1.870;2023-04-25T07:11:35;100176.38;;;7.80;100.00
71361;BME280;59166;48.908;1.870;2023-04-25T07:16:36;100180.66;;;7.76;100.00
71361;BME280;59166;48.908;1.870;2023-04-25T07:21:37;100178.13;;;7.69;100.00
71361;BME280;59166;48.908;1.870;2023-04-25T07:26:39;100189.28;;;7.78;100.00
71361;BME280;59166;48.908;1.870;2023-04-25T07:31:40;100194.31;;;7.91;100.00
71361;BME280;59166;48.908;1.870;2023-04-25T07:36:41;100194.13;;;8.14;100.00
71361;BME280;59166;48.908;1.870;2023-04-25T07:41:43;100216.28;;;8.38;100.00
71361;BME280;59166;48.908;1.870;2023-04-25T07:46:44;100220.38;;;8.24;100.00
71361;BME280;59166;48.908;1.870;2023-04-25T07:51:45;100234.97;;;8.11;100.00
71361;BME280;59166;48.908;1.870;2023-04-25T07:56:48;100245.19;;;8.09;100.00
71361;BME280;59166;48.908;1.870;2023-04-25T08:01:49;100252.28;;;8.15;100.00
71361;BME280;59166;48.908;1.870;2023-04-25T08:06:49;100261.19;;;8.54;100.00
71361;BME280;59166;48.908;1.870;2023-04-25T08:11:52;100261.28;;;8.43;100.00
71361;BME280;59166;48.908;1.870;2023-04-25T08:16:53;100262.78;;;8.34;100.00
71361;BME280;59166;48.908;1.870;2023-04-25T08:21:53;100269.44;;;8.31;100.00
71361;BME280;59166;48.908;1.870;2023-04-25T08:26:56;100278.94;;;8.17;100.00
71361;BME280;59166;48.908;1.870;2023-04-25T08:31:57;100280.47;;;8.29;100.00
71361;BME280;59166;48.908;1.870;2023-04-25T08:36:58;100289.00;;;8.60;100.00
71361;BME280;59166;48.908;1.870;2023-04-25T08:42:00;100303.75;;;9.12;100.00
71361;BME280;59166;48.908;1.870;2023-04-25T08:47:03;100315.91;;;9.90;100.00
71361;BME280;59166;48.908;1.870;2023-04-25T08:52:05;100316.28;;;9.23;99.72
71361;BME280;59166;48.908;1.870;2023-04-25T08:57:07;100334.75;;;8.93;98.43
71361;BME280;59166;48.908;1.870;2023-04-25T09:02:08;100338.63;;;9.02;98.32
71361;BME280;59166;48.908;1.870;2023-04-25T09:07:09;100335.22;;;9.07;92.55
71361;BME280;59166;48.908;1.870;2023-04-25T09:12:12;100356.50;;;9.08;89.89
71361;BME280;59166;48.908;1.870;2023-04-25T09:17:13;100359.31;;;9.18;93.70
71361;BME280;59166;48.908;1.870;2023-04-25T09:22:14;100368.69;;;9.32;94.65
71361;BME280;59166;48.908;1.870;2023-04-25T09:27:20;100378.19;;;9.18;92.03
71361;BME280;59166;48.908;1.870;2023-04-25T09:32:23;100382.16;;;9.11;90.64
71361;BME280;59166;48.908;1.870;2023-04-25T09:37:25;100393.41;;;9.24;86.68
71361;BME280;59166;48.908;1.870;2023-04-25T09:42:29;100388.69;;;9.37;88.84
71361;BME280;59166;48.908;1.870;2023-04-25T09:47:29;100392.78;;;9.61;84.96
71361;BME280;59166;48.908;1.870;2023-04-25T09:52:30;100395.94;;;9.79;92.72
71361;BME280;59166;48.908;1.870;2023-04-25T09:57:33;100399.22;;;10.08;88.78
71361;BME280;59166;48.908;1.870;2023-04-25T10:02:34;100406.59;;;10.45;86.09
71361;BME280;59166;48.908;1.870;2023-04-25T10:07:36;100408.34;;;10.02;84.56
71361;BME280;59166;48.908;1.870;2023-04-25T10:12:40;100415.84;;;9.73;84.92
71361;BME280;59166;48.908;1.870;2023-04-25T10:17:41;100412.91;;;9.53;82.93
71361;BME280;59166;48.908;1.870;2023-04-25T10:22:45;100417.84;;;9.61;86.13
71361;BME280;59166;48.908;1.870;2023-04-25T10:27:50;100416.47;;;9.80;86.51
71361;BME280;59166;48.908;1.870;2023-04-25T10:32:55;100422.28;;;9.94;89.24
71361;BME280;59166;48.908;1.870;2023-04-25T10:38:00;100418.72;;;9.89;87.73
71361;BME280;59166;48.908;1.870;2023-04-25T10:43:35;100428.63;;;9.83;86.57
71361;BME280;59166;48.908;1.870;2023-04-25T10:48:36;100429.09;;;9.75;84.86
71361;BME280;59166;48.908;1.870;2023-04-25T10:53:40;100428.91;;;10.08;85.69
71361;BME280;59166;48.908;1.870;2023-04-25T10:58:46;100441.69;;;10.45;82.09
71361;BME280;59166;48.908;1.870;2023-04-25T11:03:47;100442.06;;;10.80;80.35
71361;BME280;59166;48.908;1.870;2023-04-25T11:08:49;100436.75;;;10.95;70.81
71361;BME280;59166;48.908;1.870;2023-04-25T11:13:52;100438.53;;;11.16;77.18
71361;BME280;59166;48.908;1.870;2023-04-25T11:18:53;100439.97;;;10.92;79.83
71361;BME280;59166;48.908;1.870;2023-04-25T11:23:54;100446.13;;;10.56;74.80
71361;BME280;59166;48.908;1.870;2023-04-25T11:28:59;100443.72;;;10.59;80.00
71361;BME280;59166;48.908;1.870;2023-04-25T11:34:00;100437.78;;;10.89;73.54
71361;BME280;59166;48.908;1.870;2023-04-25T11:39:02;100430.88;;;11.03;72.52
71361;BME280;59166;48.908;1.870;2023-04-25T11:44:05;100435.91;;;11.31;70.21
71361;BME280;59166;48.908;1.870;2023-04-25T11:49:06;100440.91;;;11.55;72.17
71361;BME280;59166;48.908;1.870;2023-04-25T11:54:07;100438.38;;;12.00;74.53
71361;BME280;59166;48.908;1.870;2023-04-25T11:59:09;100428.16;;;12.22;71.19
71361;BME280;59166;48.908;1.870;2023-04-25T12:04:12;100428.75;;;12.34;69.19
71361;BME280;59166;48.908;1.870;2023-04-25T12:09:18;100428.22;;;12.63;68.51
71361;BME280;59166;48.908;1.870;2023-04-25T12:14:25;100432.25;;;13.11;59.74
71361;BME280;59166;48.908;1.870;2023-04-25T12:19:26;100436.50;;;13.52;61.36
71361;BME280;59166;48.908;1.870;2023-04-25T12:24:33;100428.63;;;13.61;58.31
71361;BME280;59166;48.908;1.870;2023-04-25T12:29:36;100426.09;;;13.84;59.29
71361;BME280;59166;48.908;1.870;2023-04-25T12:34:37;100428.09;;;13.54;57.57
71361;BME280;59166;48.908;1.870;2023-04-25T12:39:38;100433.09;;;12.81;66.81
71361;BME280;59166;48.908;1.870;2023-04-25T12:44:40;100437.97;;;12.74;57.89
71361;BME280;59166;48.908;1.870;2023-04-25T12:49:42;100445.84;;;12.65;61.58
71361;BME280;59166;48.908;1.870;2023-04-25T12:54:43;100450.16;;;12.51;57.38
71361;BME280;59166;48.908;1.870;2023-04-25T12:59:45;100441.22;;;12.51;61.05
71361;BME280;59166;48.908;1.870;2023-04-25T13:04:46;100448.44;;;12.20;61.62
71361;BME280;59166;48.908;1.870;2023-04-25T13:09:47;100441.97;;;12.26;63.02
71361;BME280;59166;48.908;1.870;2023-04-25T13:14:49;100454.19;;;12.33;63.52
71361;BME280;59166;48.908;1.870;2023-04-25T13:19:50;100448.78;;;12.33;64.72
71361;BME280;59166;48.908;1.870;2023-04-25T13:24:51;100446.00;;;12.18;61.86
71361;BME280;59166;48.908;1.870;2023-04-25T13:29:53;100454.16;;;12.18;62.09
71361;BME280;59166;48.908;1.870;2023-04-25T13:34:54;100455.47;;;12.16;61.53
71361;BME280;59166;48.908;1.870;2023-04-25T13:39:55;100447.59;;;12.04;56.05
71361;BME280;59166;48.908;1.870;2023-04-25T13:44:57;100459.50;;;12.03;61.18
71361;BME280;59166;48.908;1.870;2023-04-25T13:49:58;100457.19;;;12.32;59.19
71361;BME280;59166;48.908;1.870;2023-04-25T14:06:19;100468.91;;;12.93;61.32
71361;BME280;59166;48.908;1.870;2023-04-25T14:11:20;100462.91;;;13.06;56.86
71361;BME280;59166;48.908;1.870;2023-04-25T14:16:25;100457.47;;;13.21;56.41
71361;BME280;59166;48.908;1.870;2023-04-25T14:21:27;100451.50;;;13.29;56.30
71361;BME280;59166;48.908;1.870;2023-04-25T14:26:34;100457.47;;;13.11;53.81
71361;BME280;59166;48.908;1.870;2023-04-25T14:31:35;100459.34;;;13.36;57.18
71361;BME280;59166;48.908;1.870;2023-04-25T14:36:37;100473.72;;;13.31;55.85
71361;BME280;59166;48.908;1.870;2023-04-25T14:41:39;100474.03;;;13.00;52.53
71361;BME280;59166;48.908;1.870;2023-04-25T14:46:40;100472.69;;;12.62;56.95
71361;BME280;59166;48.908;1.870;2023-04-25T14:51:42;100465.09;;;12.59;57.85
71361;BME280;59166;48.908;1.870;2023-04-25T15:08:05;100458.84;;;12.73;58.64
71361;BME280;59166;48.908;1.870;2023-04-25T15:13:07;100459.66;;;12.84;54.97
71361;BME280;59166;48.908;1.870;2023-04-25T15:18:08;100455.88;;;13.05;56.46
71361;BME280;59166;48.908;1.870;2023-04-25T15:23:11;100461.81;;;13.12;57.72
71361;BME280;59166;48.908;1.870;2023-04-25T15:28:17;100456.66;;;13.21;56.39
71361;BME280;59166;48.908;1.870;2023-04-25T15:33:18;100446.06;;;13.14;58.26
71361;BME280;59166;48.908;1.870;2023-04-25T15:38:22;100453.41;;;13.09;54.19
71361;BME280;59166;48.908;1.870;2023-04-25T15:43:40;100439.28;;;13.22;52.66
71361;BME280;59166;48.908;1.870;2023-04-25T15:48:42;100445.81;;;13.16;50.41
71361;BME280;59166;48.908;1.870;2023-04-25T15:53:45;100451.81;;;13.03;57.33
71361;BME280;59166;48.908;1.870;2023-04-25T15:58:47;100454.78;;;12.71;50.74
71361;BME280;59166;48.908;1.870;2023-04-25T16:03:49;100455.88;;;12.75;57.36
71361;BME280;59166;48.908;1.870;2023-04-25T16:08:52;100464.53;;;12.67;57.07
71361;BME280;59166;48.908;1.870;2023-04-25T16:13:53;100459.66;;;12.54;55.75
71361;BME280;59166;48.908;1.870;2023-04-25T16:18:55;100458.84;;;12.63;57.61
71361;BME280;59166;48.908;1.870;2023-04-25T16:23:59;100464.53;;;12.52;57.28
71361;BME280;59166;48.908;1.870;2023-04-25T16:29:03;100462.06;;;12.40;55.29
71361;BME280;59166;48.908;1.870;2023-04-25T16:34:08;100455.56;;;12.41;55.63
71361;BME280;59166;48.908;1.870;2023-04-25T16:39:25;100455.25;;;12.22;57.12
71361;BME280;59166;48.908;1.870;2023-04-25T16:44:26;100440.63;;;12.28;60.85
71361;BME280;59166;48.908;1.870;2023-04-25T16:49:28;100443.91;;;12.30;62.48
71361;BME280;59166;48.908;1.870;2023-04-25T16:54:31;100441.69;;;12.27;58.54
71361;BME280;59166;48.908;1.870;2023-04-25T16:59:47;100446.00;;;12.18;60.73
71361;BME280;59166;48.908;1.870;2023-04-25T17:04:53;100448.44;;;12.20;62.11
71361;BME280;59166;48.908;1.870;2023-04-25T17:10:03;100432.00;;;12.52;57.53
71361;BME280;59166;48.908;1.870;2023-04-25T17:15:10;100439.06;;;13.03;58.08
71361;BME280;59166;48.908;1.870;2023-04-25T17:20:14;100440.69;;;13.09;52.32
71361;BME280;59166;48.908;1.870;2023-04-25T17:25:52;100434.13;;;13.25;56.13
71361;BME280;59166;48.908;1.870;2023-04-25T17:30:53;100431.97;;;13.17;54.92
71361;BME280;59166;48.908;1.870;2023-04-25T17:35:54;100439.63;;;13.00;56.43
71361;BME280;59166;48.908;1.870;2023-04-25T17:41:02;100423.34;;;12.85;52.18
71361;BME280;59166;48.908;1.870;2023-04-25T17:46:09;100432.00;;;12.52;53.23
71361;BME280;59166;48.908;1.870;2023-04-25T17:51:14;100441.75;;;12.32;55.51
71361;BME280;59166;48.908;1.870;2023-04-25T17:56:26;100434.94;;;12.25;62.19
71361;BME280;59166;48.908;1.870;2023-04-25T18:01:29;100441.09;;;12.10;60.35
71361;BME280;59166;48.908;1.870;2023-04-25T18:06:30;100443.25;;;11.98;55.96
71361;BME280;59166;48.908;1.870;2023-04-25T18:11:32;100445.34;;;11.81;58.30
71361;BME280;59166;48.908;1.870;2023-04-25T18:16:33;100447.69;;;11.62;58.76
71361;BME280;59166;48.908;1.870;2023-04-25T18:21:34;100449.53;;;11.47;59.84
71361;BME280;59166;48.908;1.870;2023-04-25T18:26:37;100455.91;;;11.30;58.67
71361;BME280;59166;48.908;1.870;2023-04-25T18:31:37;100465.78;;;11.10;60.04
71361;BME280;59166;48.908;1.870;2023-04-25T18:36:39;100455.13;;;10.93;63.37
71361;BME280;59166;48.908;1.870;2023-04-25T18:41:41;100454.22;;;10.82;60.30
71361;BME280;59166;48.908;1.870;2023-04-25T18:46:42;100458.06;;;10.60;63.40
71361;BME280;59166;48.908;1.870;2023-04-25T18:51:43;100457.88;;;10.40;66.13
71361;BME280;59166;48.908;1.870;2023-04-25T18:56:45;100460.56;;;10.13;67.69
71361;BME280;59166;48.908;1.870;2023-04-25T19:01:46;100471.78;;;9.83;67.27
71361;BME280;59166;48.908;1.870;2023-04-25T19:06:47;100478.34;;;9.65;64.26
71361;BME280;59166;48.908;1.870;2023-04-25T19:11:50;100477.38;;;9.55;64.90
71361;BME280;59166;48.908;1.870;2023-04-25T19:16:50;100476.78;;;9.53;63.75
71361;BME280;59166;48.908;1.870;2023-04-25T19:21:51;100469.59;;;9.58;66.33
71361;BME280;59166;48.908;1.870;2023-04-25T19:26:54;100468.78;;;9.58;65.83
71361;BME280;59166;48.908;1.870;2023-04-25T19:31:55;100483.66;;;9.60;65.22
71361;BME280;59166;48.908;1.870;2023-04-25T19:36:56;100486.28;;;9.55;65.55
71361;BME280;59166;48.908;1.870;2023-04-25T19:41:58;100491.88;;;9.49;67.35
71361;BME280;59166;48.908;1.870;2023-04-25T19:46:59;100499.88;;;9.44;67.03
71361;BME280;59166;48.908;1.870;2023-04-25T19:52:00;100506.91;;;9.45;66.54
71361;BME280;59166;48.908;1.870;2023-04-25T19:57:02;100505.13;;;9.33;67.96
71361;BME280;59166;48.908;1.870;2023-04-25T20:02:03;100522.28;;;9.27;68.42
71361;BME280;59166;48.908;1.870;2023-04-25T20:07:04;100525.38;;;9.19;67.89
71361;BME280;59166;48.908;1.870;2023-04-25T20:12:06;100520.66;;;9.10;67.38
71361;BME280;59166;48.908;1.870;2023-04-25T20:17:07;100522.19;;;9.06;67.89
71361;BME280;59166;48.908;1.870;2023-04-25T20:22:08;100522.44;;;9.04;68.77
71361;BME280;59166;48.908;1.870;2023-04-25T20:27:10;100515.81;;;8.95;68.42
71361;BME280;59166;48.908;1.870;2023-04-25T20:32:11;100516.44;;;8.86;68.78
71361;BME280;59166;48.908;1.870;2023-04-25T20:37:12;100518.25;;;8.80;70.42
71361;BME280;59166;48.908;1.870;2023-04-25T20:42:14;100515.22;;;8.76;69.10
71361;BME280;59166;48.908;1.870;2023-04-25T20:47:15;100519.94;;;8.69;69.42
71361;BME280;59166;48.908;1.870;2023-04-25T20:52:16;100523.13;;;8.66;68.01
71361;BME280;59166;48.908;1.870;2023-04-25T20:57:18;100525.28;;;8.53;70.53
71361;BME280;59166;48.908;1.870;2023-04-25T21:02:19;100520.88;;;8.47;70.62
71361;BME280;59166;48.908;1.870;2023-04-25T21:07:20;100526.75;;;8.44;70.85
71361;BME280;59166;48.908;1.870;2023-04-25T21:12:22;100529.91;;;8.41;71.87
71361;BME280;59166;48.908;1.870;2023-04-25T21:17:23;100535.34;;;8.29;72.79
71361;BME280;59166;48.908;1.870;2023-04-25T21:22:23;100537.47;;;8.27;74.27
71361;BME280;59166;48.908;1.870;2023-04-25T21:27:26;100541.75;;;8.28;73.14
71361;BME280;59166;48.908;1.870;2023-04-25T21:32:27;100532.66;;;8.17;74.24
71361;BME280;59166;48.908;1.870;2023-04-25T21:37:27;100533.16;;;8.14;72.37
71361;BME280;59166;48.908;1.870;2023-04-25T21:42:29;100539.84;;;8.12;73.74
71361;BME280;59166;48.908;1.870;2023-04-25T21:47:31;100539.63;;;8.02;74.30
71361;BME280;59166;48.908;1.870;2023-04-25T21:52:32;100543.22;;;8.07;73.81
71361;BME280;59166;48.908;1.870;2023-04-25T21:57:36;100543.22;;;8.07;73.55
71361;BME280;59166;48.908;1.870;2023-04-25T22:02:37;100552.38;;;7.95;75.04
71361;BME280;59166;48.908;1.870;2023-04-25T22:07:37;100558.47;;;7.90;76.50
71361;BME280;59166;48.908;1.870;2023-04-25T22:12:40;100564.91;;;7.89;76.28
71361;BME280;59166;48.908;1.870;2023-04-25T22:17:40;100568.19;;;7.91;76.66
71361;BME280;59166;48.908;1.870;2023-04-25T22:22:42;100563.25;;;8.00;74.74
71361;BME280;59166;48.908;1.870;2023-04-25T22:27:44;100560.81;;;7.98;75.50
71361;BME280;59166;48.908;1.870;2023-04-25T22:32:45;100563.84;;;7.90;74.45
71361;BME280;59166;48.908;1.870;2023-04-25T22:37:46;100564.31;;;7.87;76.27
71361;BME280;59166;48.908;1.870;2023-04-25T22:42:48;100565.25;;;7.81;75.49
71361;BME280;59166;48.908;1.870;2023-04-25T22:47:49;100554.50;;;7.81;75.19
71361;BME280;59166;48.908;1.870;2023-04-25T22:52:50;100551.72;;;7.76;75.49
71361;BME280;59166;48.908;1.870;2023-04-25T22:57:52;100550.09;;;7.75;75.15
71361;BME280;59166;48.908;1.870;2023-04-25T23:02:53;100547.25;;;7.70;76.08
71361;BME280;59166;48.908;1.870;2023-04-25T23:07:54;100545.53;;;7.75;74.65
71361;BME280;59166;48.908;1.870;2023-04-25T23:12:56;100559.53;;;7.77;75.44
71361;BME280;59166;48.908;1.870;2023-04-25T23:17:57;100560.25;;;7.73;75.60
71361;BME280;59166;48.908;1.870;2023-04-25T23:22:58;100560.84;;;7.63;75.78
71361;BME280;59166;48.908;1.870;2023-04-25T23:28:00;100555.81;;;7.67;74.97
71361;BME280;59166;48.908;1.870;2023-04-25T23:33:01;100559.22;;;7.62;75.72
71361;BME280;59166;48.908;1.870;2023-04-25T23:38:02;100567.75;;;7.59;75.46
71361;BME280;59166;48.908;1.870;2023-04-25T23:43:04;100577.34;;;7.55;76.56
71361;BME280;59166;48.908;1.870;2023-04-25T23:48:05;100580.34;;;7.47;75.72
71361;BME280;59166;48.908;1.870;2023-04-25T23:53:06;100577.56;;;7.42;77.01
71361;BME280;59166;48.908;1.870;2023-04-25T23:58:08;100578.34;;;7.43;76.67
